createdAt,value
2023-03-11T00:00:15.209Z,1.40
2023-03-11T00:02:41.602Z,1.83
2023-03-11T00:05:09.054Z,1.13
2023-03-11T00:07:35.417Z,0.75
2023-03-11T00:10:01.707Z,1.42
2023-03-11T00:12:28.114Z,1.15
2023-03-11T00:14:54.416Z,1.00
2023-03-11T00:17:20.702Z,1.70
2023-03-11T00:19:47.102Z,1.17
2023-03-11T00:22:13.493Z,3.05
2023-03-11T00:24:39.795Z,1.42
2023-03-11T00:27:06.148Z,0.90
2023-03-11T00:29:32.547Z,1.13
2023-03-11T00:31:58.939Z,0.93
2023-03-11T00:34:25.254Z,0.88
2023-03-11T00:36:51.557Z,0.68
2023-03-11T00:39:17.849Z,0.70
2023-03-11T00:41:44.183Z,1.13
2023-03-11T00:44:10.692Z,1.13
2023-03-11T00:46:37.047Z,1.75
2023-03-11T00:49:03.646Z,1.00
2023-03-11T00:51:30.349Z,1.08
2023-03-11T00:53:57.593Z,1.58
2023-03-11T00:56:23.885Z,1.58
2023-03-11T00:58:50.190Z,0.82
2023-03-11T01:01:18.880Z,1.27
2023-03-11T01:03:45.743Z,2.03
2023-03-11T01:06:12.898Z,1.08
2023-03-11T01:08:39.850Z,0.73
2023-03-11T01:11:06.958Z,1.40
2023-03-11T01:13:34.296Z,0.95
2023-03-11T01:16:01.172Z,0.77
2023-03-11T01:18:27.828Z,0.90
2023-03-11T01:20:54.703Z,1.08
2023-03-11T01:23:21.374Z,0.82
2023-03-11T01:25:47.927Z,0.80
2023-03-11T01:28:14.248Z,0.70
2023-03-11T01:30:41.972Z,1.23
2023-03-11T01:33:13.287Z,0.80
2023-03-11T01:35:39.607Z,1.10
2023-03-11T01:38:06.029Z,1.10
2023-03-11T01:40:36.424Z,0.80
2023-03-11T01:43:05.745Z,1.35
2023-03-11T01:45:50.397Z,1.15
2023-03-11T01:48:16.766Z,0.95
2023-03-11T01:50:46.774Z,1.00
2023-03-11T01:53:15.790Z,1.10
2023-03-11T01:55:43.360Z,1.48
2023-03-11T01:58:16.148Z,0.80
2023-03-11T02:00:43.636Z,1.70
2023-03-11T02:03:17.735Z,0.80
2023-03-11T02:05:45.274Z,1.95
2023-03-11T02:08:11.667Z,1.20
2023-03-11T02:10:41.275Z,1.63
2023-03-11T02:13:07.840Z,1.50
2023-03-11T02:15:34.266Z,2.78
2023-03-11T02:18:05.120Z,1.02
2023-03-11T02:20:45.215Z,1.83
2023-03-11T02:25:46.019Z,1.63
2023-03-11T02:28:14.191Z,1.90
2023-03-11T02:30:42.628Z,0.68
2023-03-11T02:33:09.913Z,1.17
2023-03-11T02:35:36.478Z,1.63
2023-03-11T02:38:03.392Z,1.30
2023-03-11T02:40:48.637Z,1.42
2023-03-11T02:43:18.004Z,1.30
2023-03-11T02:45:46.437Z,1.80
2023-03-11T02:48:14.464Z,1.55
2023-03-11T02:50:41.419Z,1.05
2023-03-11T02:53:08.072Z,0.88
2023-03-11T02:55:34.572Z,1.85
2023-03-11T02:58:00.980Z,1.25
2023-03-11T03:00:27.613Z,1.13
2023-03-11T03:02:54.024Z,1.27
2023-03-11T03:05:22.047Z,1.35
2023-03-11T03:07:49.642Z,1.15
2023-03-11T03:10:17.095Z,1.30
2023-03-11T03:12:43.493Z,1.55
2023-03-11T03:15:11.203Z,2.90
2023-03-11T03:17:38.372Z,1.30
2023-03-11T03:20:05.611Z,1.10
2023-03-11T03:22:32.015Z,1.70
2023-03-11T03:24:58.310Z,1.80
2023-03-11T03:27:24.685Z,1.65
2023-03-11T03:29:51.001Z,1.10
2023-03-11T03:32:17.333Z,1.42
2023-03-11T03:34:43.652Z,1.55
2023-03-11T03:37:09.993Z,1.48
2023-03-11T03:39:36.423Z,1.10
2023-03-11T03:42:02.742Z,1.65
2023-03-11T03:44:29.072Z,0.98
2023-03-11T03:46:55.359Z,1.10
2023-03-11T03:49:21.889Z,2.55
2023-03-11T03:51:48.184Z,1.95
2023-03-11T03:54:15.146Z,1.25
2023-03-11T03:56:41.479Z,0.95
2023-03-11T03:59:07.864Z,1.05
2023-03-11T04:01:34.153Z,3.45
2023-03-11T04:04:00.531Z,0.65
2023-03-11T04:06:27.940Z,1.92
2023-03-11T04:08:54.862Z,0.95
2023-03-11T04:11:22.379Z,0.85
2023-03-11T04:13:49.445Z,1.55
2023-03-11T04:16:19.803Z,2.08
2023-03-11T04:18:46.731Z,0.90
2023-03-11T04:21:13.181Z,2.65
2023-03-11T04:23:39.799Z,1.10
2023-03-11T04:26:06.254Z,0.98
2023-03-11T04:28:33.024Z,1.67
2023-03-11T04:30:59.360Z,1.08
2023-03-11T04:33:25.674Z,0.60
2023-03-11T04:35:52.008Z,2.13
2023-03-11T04:38:18.518Z,1.05
2023-03-11T04:40:44.865Z,2.35
2023-03-11T04:43:11.148Z,1.35
2023-03-11T04:45:41.742Z,1.88
2023-03-11T04:48:08.857Z,0.38
2023-03-11T04:50:35.311Z,1.13
2023-03-11T04:53:01.852Z,0.73
2023-03-11T04:55:28.113Z,1.80
2023-03-11T04:57:54.434Z,1.63
2023-03-11T05:00:21.072Z,2.58
2023-03-11T05:02:47.498Z,1.05
2023-03-11T05:05:13.831Z,1.23
2023-03-11T05:07:40.134Z,1.00
2023-03-11T05:10:06.947Z,2.60
2023-03-11T05:12:33.507Z,2.97
2023-03-11T05:14:59.915Z,2.13
2023-03-11T05:17:26.226Z,1.48
2023-03-11T05:19:53.247Z,2.20
2023-03-11T05:22:20.482Z,2.55
2023-03-11T05:24:47.014Z,0.82
2023-03-11T05:27:13.973Z,0.90
2023-03-11T05:29:40.392Z,2.35
2023-03-11T05:32:06.924Z,2.42
2023-03-11T05:34:33.323Z,1.33
2023-03-11T05:37:02.689Z,2.85
2023-03-11T05:39:29.538Z,1.27
2023-03-11T05:41:55.936Z,1.45
2023-03-11T05:44:22.762Z,1.98
2023-03-11T05:46:49.253Z,2.20
2023-03-11T05:49:15.699Z,1.55
2023-03-11T05:51:42.074Z,1.15
2023-03-11T05:54:08.346Z,1.02
2023-03-11T05:56:34.954Z,1.40
2023-03-11T05:59:01.230Z,1.92
2023-03-11T06:01:27.537Z,3.13
2023-03-11T06:03:53.940Z,3.25
2023-03-11T06:06:20.264Z,1.40
2023-03-11T06:08:46.633Z,1.85
2023-03-11T06:11:13.034Z,3.13
2023-03-11T06:13:39.354Z,1.42
2023-03-11T06:16:06.383Z,1.80
2023-03-11T06:18:32.711Z,2.50
2023-03-11T06:21:00.609Z,1.75
2023-03-11T06:28:26.943Z,1.92
2023-03-11T06:30:53.449Z,2.78
2023-03-11T06:33:19.718Z,2.05
2023-03-11T06:35:56.287Z,3.17
2023-03-11T06:38:22.594Z,2.92
2023-03-11T06:40:48.958Z,2.33
2023-03-11T06:43:15.564Z,1.20
2023-03-11T06:45:41.925Z,2.45
2023-03-11T06:48:08.204Z,2.50
2023-03-11T06:50:34.603Z,3.65
2023-03-11T06:53:00.965Z,8.88
2023-03-11T06:55:27.316Z,3.33
2023-03-11T06:57:53.574Z,1.95
2023-03-11T07:00:20.136Z,1.63
2023-03-11T07:02:46.422Z,2.03
2023-03-11T07:05:12.685Z,2.53
2023-03-11T07:07:38.985Z,2.40
2023-03-11T07:10:05.978Z,2.03
2023-03-11T07:12:32.548Z,3.55
2023-03-11T07:14:59.689Z,2.47
2023-03-11T07:17:26.614Z,3.58
2023-03-11T07:19:53.400Z,1.60
2023-03-11T07:22:20.934Z,2.50
2023-03-11T07:24:48.635Z,1.17
2023-03-11T07:27:15.523Z,2.92
2023-03-11T07:29:41.954Z,3.20
2023-03-11T07:32:08.582Z,2.42
2023-03-11T07:34:35.478Z,2.13
2023-03-11T07:37:01.947Z,1.83
2023-03-11T07:39:28.328Z,3.30
2023-03-11T07:41:54.637Z,3.58
2023-03-11T07:44:21.040Z,2.38
2023-03-11T07:46:47.337Z,2.97
2023-03-11T07:49:14.039Z,1.92
2023-03-11T07:51:40.539Z,3.97
2023-03-11T07:54:07.092Z,2.67
2023-03-11T07:56:34.959Z,4.00
2023-03-11T07:59:03.571Z,2.05
2023-03-11T08:01:31.450Z,2.38
2023-03-11T08:03:57.787Z,4.10
2023-03-11T08:06:30.051Z,2.38
2023-03-11T08:11:31.596Z,3.78
2023-03-11T08:13:58.341Z,2.75
2023-03-11T08:16:26.193Z,2.60
2023-03-11T08:21:21.750Z,3.13
2023-03-11T08:23:48.708Z,3.08
2023-03-11T08:26:17.960Z,2.55
2023-03-11T08:28:44.383Z,2.70
2023-03-11T08:31:15.070Z,3.50
2023-03-11T08:33:42.181Z,2.15
2023-03-11T08:36:08.743Z,2.05
2023-03-11T08:38:35.151Z,2.80
2023-03-11T08:41:01.777Z,2.30
2023-03-11T08:43:28.302Z,1.75
2023-03-11T08:45:54.739Z,2.78
2023-03-11T08:48:21.240Z,2.10
2023-03-11T08:50:54.199Z,2.10
2023-03-11T08:53:21.895Z,1.58
2023-03-11T08:55:49.904Z,3.13
2023-03-11T08:58:16.254Z,2.78
2023-03-11T09:00:42.673Z,2.42
2023-03-11T09:03:09.051Z,1.38
2023-03-11T09:05:35.925Z,1.77
2023-03-11T09:08:05.199Z,1.80
2023-03-11T09:10:32.103Z,2.30
2023-03-11T09:12:58.385Z,1.75
2023-03-11T09:15:24.738Z,1.27
2023-03-11T09:17:51.114Z,2.53
2023-03-11T09:20:17.434Z,2.60
2023-03-11T09:22:43.830Z,2.40
2023-03-11T09:25:12.442Z,2.15
2023-03-11T09:27:38.936Z,2.40
2023-03-11T09:30:05.828Z,2.42
2023-03-11T09:32:32.368Z,3.35
2023-03-11T09:34:58.656Z,1.42
2023-03-11T09:37:25.011Z,1.55
2023-03-11T09:39:51.386Z,3.08
2023-03-11T09:42:27.609Z,1.58
2023-03-11T09:45:04.703Z,1.20
2023-03-11T09:48:01.350Z,1.55
2023-03-11T09:50:32.712Z,2.08
2023-03-11T09:53:22.566Z,1.45
2023-03-11T09:55:53.914Z,1.60
2023-03-11T09:58:36.155Z,2.70
2023-03-11T10:01:10.423Z,1.80
2023-03-11T10:03:39.666Z,1.55
2023-03-11T10:06:19.445Z,3.60
2023-03-11T10:08:52.548Z,1.40
2023-03-11T10:11:32.420Z,1.30
2023-03-11T10:16:49.057Z,1.88
2023-03-11T10:19:19.848Z,1.65
2023-03-11T10:22:07.055Z,2.03
2023-03-11T10:24:40.263Z,1.70
2023-03-11T10:27:15.971Z,3.88
2023-03-11T10:29:59.949Z,2.08
2023-03-11T10:32:39.349Z,2.03
2023-03-11T10:35:21.610Z,3.80
2023-03-11T10:37:59.258Z,2.45
2023-03-11T10:40:35.867Z,2.72
2023-03-11T10:43:18.773Z,1.73
2023-03-11T10:45:46.769Z,1.75
2023-03-11T10:48:18.608Z,1.38
2023-03-11T10:50:54.217Z,1.08
2023-03-11T10:53:21.029Z,1.77
2023-03-11T10:55:56.544Z,1.45
2023-03-11T10:58:29.205Z,1.70
2023-03-11T11:01:14.424Z,2.53
2023-03-11T11:03:47.023Z,2.08
2023-03-11T11:06:24.717Z,2.40
2023-03-11T11:09:05.192Z,1.95
2023-03-11T11:11:31.611Z,2.72
2023-03-11T11:13:59.335Z,2.03
2023-03-11T11:19:14.063Z,2.67
2023-03-11T11:21:48.929Z,2.33
2023-03-11T11:24:24.412Z,3.10
2023-03-11T11:27:15.817Z,3.38
2023-03-11T11:29:43.004Z,1.73
2023-03-11T11:32:15.133Z,2.40
2023-03-11T11:34:41.911Z,2.20
2023-03-11T11:37:13.260Z,3.45
2023-03-11T11:39:50.304Z,2.17
2023-03-11T11:42:18.516Z,2.15
2023-03-11T11:44:48.284Z,1.88
2023-03-11T11:47:23.895Z,3.40
2023-03-11T11:49:56.058Z,2.53
2023-03-11T11:52:34.821Z,3.60
2023-03-11T11:55:06.459Z,2.10
2023-03-11T11:57:32.926Z,1.35
2023-03-11T11:59:59.613Z,2.40
2023-03-11T12:02:53.649Z,1.42
2023-03-11T12:05:30.553Z,1.55
2023-03-11T12:08:10.495Z,2.70
2023-03-11T12:10:39.849Z,1.98
2023-03-11T12:13:34.075Z,2.20
2023-03-11T12:16:13.865Z,1.98
2023-03-11T12:21:43.430Z,2.53
2023-03-11T12:24:30.079Z,4.22
2023-03-11T12:27:02.404Z,1.92
2023-03-11T12:29:34.148Z,1.80
2023-03-11T12:32:02.202Z,2.58
2023-03-11T12:34:33.933Z,3.50
2023-03-11T12:37:01.422Z,2.13
2023-03-11T12:39:31.225Z,1.40
2023-03-11T12:42:19.205Z,3.13
2023-03-11T12:44:46.716Z,2.45
2023-03-11T12:47:12.997Z,3.45
2023-03-11T12:49:41.798Z,3.85
2023-03-11T12:52:11.268Z,4.47
2023-03-11T12:54:45.650Z,3.28
2023-03-11T12:57:17.988Z,4.10
2023-03-11T13:00:03.093Z,5.00
2023-03-11T13:03:07.071Z,6.95
2023-03-11T13:05:52.012Z,3.72
2023-03-11T13:08:48.989Z,2.92
2023-03-11T13:11:38.414Z,2.88
2023-03-11T13:14:26.409Z,2.90
2023-03-11T13:16:52.704Z,3.03
2023-03-11T13:19:34.402Z,4.32
2023-03-11T13:22:02.781Z,3.33
2023-03-11T13:24:29.018Z,3.78
2023-03-11T13:27:03.370Z,2.58
2023-03-11T13:29:53.161Z,1.92
2023-03-11T13:32:41.617Z,3.85
2023-03-11T13:35:35.734Z,3.53
2023-03-11T13:38:24.459Z,3.53
2023-03-11T13:40:52.231Z,3.75
2023-03-11T13:45:54.749Z,2.00
2023-03-11T13:48:28.538Z,1.70
2023-03-11T13:51:06.325Z,3.03
2023-03-11T13:53:39.370Z,3.22
2023-03-11T13:56:06.146Z,2.42
2023-03-11T13:58:32.431Z,2.97
2023-03-11T14:01:00.912Z,2.83
2023-03-11T14:03:33.721Z,2.72
2023-03-11T14:06:06.489Z,3.85
2023-03-11T14:08:35.060Z,1.75
2023-03-11T14:11:17.238Z,2.80
2023-03-11T14:13:45.919Z,2.58
2023-03-11T14:16:21.315Z,2.60
2023-03-11T14:19:03.359Z,4.07
2023-03-11T14:21:29.695Z,2.78
2023-03-11T14:23:56.480Z,3.35
2023-03-11T14:26:27.696Z,2.67
2023-03-11T14:28:57.091Z,2.60
2023-03-11T14:31:35.547Z,2.80
2023-03-11T14:34:15.173Z,4.32
2023-03-11T14:36:47.290Z,2.60
2023-03-11T14:39:27.654Z,3.60
2023-03-11T14:42:04.000Z,2.00
2023-03-11T14:44:33.633Z,1.83
2023-03-11T14:47:09.592Z,1.63
2023-03-11T14:49:36.400Z,1.30
2023-03-11T14:52:08.619Z,3.55
2023-03-11T14:54:36.549Z,4.38
2023-03-11T14:57:08.817Z,2.50
2023-03-11T14:59:37.073Z,2.42
2023-03-11T15:02:38.123Z,4.05
2023-03-11T15:05:14.198Z,3.05
2023-03-11T15:07:40.528Z,2.95
2023-03-11T15:10:09.803Z,4.30
2023-03-11T15:12:41.283Z,3.42
2023-03-11T15:15:26.840Z,4.32
2023-03-11T15:17:57.925Z,1.83
2023-03-11T15:20:31.338Z,6.28
2023-03-11T15:23:01.576Z,2.97
2023-03-11T15:25:30.851Z,3.83
2023-03-11T15:27:57.614Z,2.50
2023-03-11T15:30:25.733Z,3.17
2023-03-11T15:32:52.289Z,4.22
2023-03-11T15:35:24.511Z,3.72
2023-03-11T15:38:11.569Z,2.95
2023-03-11T15:40:45.249Z,2.47
2023-03-11T15:43:14.908Z,2.80
2023-03-11T15:45:41.892Z,2.97
2023-03-11T15:48:10.534Z,3.10
2023-03-11T15:50:52.878Z,5.53
2023-03-11T15:53:21.735Z,6.10
2023-03-11T15:55:48.263Z,3.47
2023-03-11T15:58:16.689Z,7.68
2023-03-11T16:00:56.872Z,6.07
2023-03-11T16:03:23.972Z,4.82
2023-03-11T16:05:50.675Z,2.92
2023-03-11T16:08:16.958Z,3.40
2023-03-11T16:10:43.666Z,3.78
2023-03-11T16:13:12.636Z,3.55
2023-03-11T16:15:39.051Z,4.55
2023-03-11T16:18:07.040Z,3.05
2023-03-11T16:20:40.295Z,5.07
2023-03-11T16:23:10.309Z,4.05
2023-03-11T16:25:39.665Z,3.25
2023-03-11T16:28:06.917Z,3.15
2023-03-11T16:30:34.731Z,3.20
2023-03-11T16:35:31.129Z,3.00
2023-03-11T16:37:57.453Z,4.05
2023-03-11T16:40:26.152Z,2.67
2023-03-11T16:42:57.511Z,3.15
2023-03-11T16:45:23.942Z,4.47
2023-03-11T16:47:50.377Z,2.65
2023-03-11T16:50:16.910Z,3.15
2023-03-11T16:52:43.189Z,4.13
2023-03-11T16:55:09.742Z,2.00
2023-03-11T16:57:36.146Z,4.10
2023-03-11T17:00:03.031Z,4.50
2023-03-11T17:02:29.403Z,6.53
2023-03-11T17:04:55.992Z,6.13
2023-03-11T17:07:22.403Z,4.57
2023-03-11T17:09:48.890Z,5.35
2023-03-11T17:12:15.243Z,7.07
2023-03-11T17:14:41.580Z,8.40
2023-03-11T17:17:07.955Z,5.28
2023-03-11T17:19:34.284Z,3.58
2023-03-11T17:22:00.672Z,5.10
2023-03-11T17:24:26.976Z,3.92
2023-03-11T17:26:53.272Z,5.25
2023-03-11T17:29:19.549Z,5.32
2023-03-11T17:31:45.965Z,5.68
2023-03-11T17:34:12.331Z,7.20
2023-03-11T17:36:38.674Z,5.20
2023-03-11T17:39:05.081Z,4.82
2023-03-11T17:41:31.499Z,8.18
2023-03-11T17:43:57.799Z,6.03
2023-03-11T17:46:24.322Z,11.95
2023-03-11T17:48:51.100Z,3.38
2023-03-11T17:51:20.436Z,5.13
2023-03-11T17:53:48.364Z,4.72
2023-03-11T17:56:17.400Z,3.45
2023-03-11T17:58:44.579Z,3.72
2023-03-11T18:01:15.032Z,3.72
2023-03-11T18:03:42.159Z,5.03
2023-03-11T18:06:09.472Z,6.10
2023-03-11T18:08:36.635Z,5.00
2023-03-11T18:11:06.260Z,6.22
2023-03-11T18:13:33.815Z,3.80
2023-03-11T18:16:06.919Z,4.22
2023-03-11T18:18:34.934Z,5.32
2023-03-11T18:21:07.013Z,6.30
2023-03-11T18:23:35.424Z,7.95
2023-03-11T18:26:04.210Z,16.88
2023-03-11T18:28:30.592Z,39.20
2023-03-11T18:30:56.997Z,10.48
2023-03-11T18:33:24.341Z,6.70
2023-03-11T18:35:50.805Z,9.57
2023-03-11T18:38:17.144Z,7.47
2023-03-11T18:40:43.496Z,12.65
2023-03-11T18:43:12.553Z,9.40
2023-03-11T18:45:39.850Z,9.52
2023-03-11T18:48:06.309Z,13.23
2023-03-11T18:50:32.631Z,11.18
2023-03-11T18:52:58.969Z,13.10
2023-03-11T18:55:25.326Z,7.60
2023-03-11T18:57:51.614Z,7.93
2023-03-11T19:00:18.367Z,6.93
2023-03-11T19:02:44.762Z,5.55
2023-03-11T19:05:11.197Z,11.77
2023-03-11T19:07:37.604Z,13.07
2023-03-11T19:10:04.294Z,9.95
2023-03-11T19:12:30.735Z,7.97
2023-03-11T19:14:57.036Z,5.03
2023-03-11T19:17:23.446Z,9.20
2023-03-11T19:19:49.797Z,10.10
2023-03-11T19:22:16.112Z,9.45
2023-03-11T19:24:42.433Z,7.57
2023-03-11T19:27:08.732Z,6.78
2023-03-11T19:29:35.172Z,8.77
2023-03-11T19:32:03.474Z,5.32
2023-03-11T19:34:29.961Z,9.23
2023-03-11T19:36:56.275Z,15.98
2023-03-11T19:39:22.584Z,22.02
2023-03-11T19:41:48.889Z,23.15
2023-03-11T19:44:15.425Z,18.92
2023-03-11T19:46:41.814Z,16.08
2023-03-11T19:49:08.266Z,14.85
2023-03-11T19:51:48.481Z,17.10
2023-03-11T19:54:16.460Z,22.83
2023-03-11T19:56:42.931Z,21.35
2023-03-11T19:59:09.236Z,29.17
2023-03-11T20:01:35.646Z,23.17
2023-03-11T20:04:01.970Z,19.33
2023-03-11T20:06:28.406Z,18.15
2023-03-11T20:08:54.741Z,19.55
2023-03-11T20:11:21.755Z,20.77
2023-03-11T20:13:48.133Z,23.40
2023-03-11T20:16:18.755Z,21.83
2023-03-11T20:18:48.811Z,21.75
2023-03-11T20:21:15.198Z,24.45
2023-03-11T20:23:41.616Z,25.15
2023-03-11T20:26:13.819Z,25.65
2023-03-11T20:28:40.791Z,18.08
2023-03-11T20:31:15.864Z,15.48
2023-03-11T20:33:42.437Z,13.10
2023-03-11T20:36:12.869Z,14.50
2023-03-11T20:38:39.619Z,11.73
2023-03-11T20:41:06.364Z,12.32
2023-03-11T20:43:33.693Z,12.68
2023-03-11T20:46:00.815Z,14.52
2023-03-11T20:48:28.215Z,17.10
2023-03-11T20:50:54.610Z,25.05
2023-03-11T20:53:21.029Z,22.20
2023-03-11T20:55:47.401Z,23.52
2023-03-11T20:58:13.792Z,20.00
2023-03-11T21:00:40.137Z,23.30
2023-03-11T21:03:06.504Z,18.95
2023-03-11T21:05:37.043Z,19.58
2023-03-11T21:08:04.146Z,21.20
2023-03-11T21:10:31.058Z,18.85
2023-03-11T21:12:57.492Z,16.83
2023-03-11T21:15:24.072Z,14.85
2023-03-11T21:17:50.450Z,17.80
2023-03-11T21:20:17.028Z,19.15
2023-03-11T21:22:43.473Z,21.10
2023-03-11T21:25:09.796Z,18.10
2023-03-11T21:27:36.178Z,18.58
2023-03-11T21:30:02.502Z,17.08
2023-03-11T21:32:29.007Z,14.65
2023-03-11T21:34:57.633Z,18.50
2023-03-11T21:37:24.492Z,21.17
2023-03-11T21:39:51.123Z,17.40
2023-03-11T21:42:18.268Z,24.83
2023-03-11T21:44:44.701Z,19.50
2023-03-11T21:47:12.246Z,26.00
2023-03-11T21:49:38.535Z,20.02
2023-03-11T21:52:06.586Z,17.50
2023-03-11T21:54:33.065Z,14.15
2023-03-11T21:56:59.411Z,18.05
2023-03-11T21:59:26.106Z,14.00
2023-03-11T22:01:52.843Z,18.42
2023-03-11T22:04:19.388Z,16.40
2023-03-11T22:06:45.816Z,24.45
2023-03-11T22:09:12.284Z,22.67
2023-03-11T22:11:38.619Z,23.45
2023-03-11T22:14:04.961Z,24.40
2023-03-11T22:16:31.502Z,19.75
2023-03-11T22:18:57.862Z,15.90
2023-03-11T22:21:24.389Z,16.55
2023-03-11T22:23:50.889Z,15.35
2023-03-11T22:26:17.533Z,17.23
2023-03-11T22:28:43.833Z,20.75
2023-03-11T22:31:12.883Z,18.58
2023-03-11T22:33:39.759Z,17.55
2023-03-11T22:36:07.067Z,16.95
2023-03-11T22:38:33.503Z,18.00
2023-03-11T22:40:59.998Z,13.18
2023-03-11T22:43:27.012Z,13.80
2023-03-11T22:45:53.486Z,15.93
2023-03-11T22:48:19.843Z,14.77
2023-03-11T22:50:46.136Z,14.43
2023-03-11T22:53:13.033Z,14.27
2023-03-11T22:55:40.438Z,19.75
2023-03-11T22:58:07.270Z,17.13
2023-03-11T23:00:33.660Z,19.15
2023-03-11T23:02:59.942Z,14.48
2023-03-11T23:05:26.248Z,17.15
2023-03-11T23:07:52.575Z,15.95
2023-03-11T23:10:21.267Z,19.73
2023-03-11T23:12:48.235Z,18.75
2023-03-11T23:15:17.892Z,15.63
2023-03-11T23:17:44.776Z,18.25
2023-03-11T23:20:15.714Z,21.88
2023-03-11T23:22:42.363Z,17.10
2023-03-11T23:25:12.420Z,15.95
2023-03-11T23:27:38.742Z,21.70
2023-03-11T23:30:06.243Z,16.38
2023-03-11T23:32:32.866Z,17.42
2023-03-11T23:34:59.300Z,13.02
2023-03-11T23:37:25.614Z,15.90
2023-03-11T23:39:51.950Z,18.60
2023-03-11T23:42:25.508Z,14.65
2023-03-11T23:44:53.098Z,14.15
2023-03-11T23:47:19.568Z,13.48
2023-03-11T23:49:45.872Z,18.85
2023-03-11T23:52:12.207Z,14.63
2023-03-11T23:54:38.543Z,16.63
2023-03-11T23:57:04.835Z,16.00
2023-03-11T23:59:31.161Z,17.17
